sensor_id;sensor_type;location;lat;lon;timestamp;pressure;altitude;pressure_sealevel;temperature;humidity
28448;BME280;15675;52.870;-1.416;2024-01-16T00:00:49;100700.97;;;0.10;72.66
28448;BME280;15675;52.870;-1.416;2024-01-16T00:03:14;100691.06;;;-0.02;72.78
28448;BME280;15675;52.870;-1.416;2024-01-16T00:05:40;100690.16;;;0.15;73.00
28448;BME280;15675;52.870;-1.416;2024-01-16T00:08:05;100686.53;;;0.10;72.40
28448;BME280;15675;52.870;-1.416;2024-01-16T00:10:31;100685.44;;;0.05;72.92
28448;BME280;15675;52.870;-1.416;2024-01-16T00:12:56;100685.69;;;-0.08;72.81
28448;BME280;15675;52.870;-1.416;2024-01-16T00:15:22;100681.06;;;0.03;73.04
28448;BME280;15675;52.870;-1.416;2024-01-16T00:17:47;100680.53;;;0.10;73.08
28448;BME280;15675;52.870;-1.416;2024-01-16T00:20:13;100681.97;;;0.03;72.89
28448;BME280;15675;52.870;-1.416;2024-01-16T00:22:39;100675.72;;;0.16;72.84
28448;BME280;15675;52.870;-1.416;2024-01-16T00:25:05;100670.69;;;0.17;72.38
28448;BME280;15675;52.870;-1.416;2024-01-16T00:27:30;100673.50;;;0.24;72.52
28448;BME280;15675;52.870;-1.416;2024-01-16T00:29:56;100670.63;;;0.16;72.58
28448;BME280;15675;52.870;-1.416;2024-01-16T00:32:21;100666.66;;;0.03;72.53
28448;BME280;15675;52.870;-1.416;2024-01-16T00:34:47;100669.13;;;0.02;72.75
28448;BME280;15675;52.870;-1.416;2024-01-16T00:37:13;100652.94;;;0.21;73.15
28448;BME280;15675;52.870;-1.416;2024-01-16T00:39:38;100654.47;;;0.17;73.06
28448;BME280;15675;52.870;-1.416;2024-01-16T00:42:04;100647.22;;;0.07;72.58
28448;BME280;15675;52.870;-1.416;2024-01-16T00:44:31;100643.53;;;0.00;72.71
28448;BME280;15675;52.870;-1.416;2024-01-16T00:46:56;100641.38;;;0.09;72.80
28448;BME280;15675;52.870;-1.416;2024-01-16T00:49:22;100640.41;;;-0.12;72.82
28448;BME280;15675;52.870;-1.416;2024-01-16T00:51:47;100632.69;;;0.06;72.73
28448;BME280;15675;52.870;-1.416;2024-01-16T00:54:13;100627.47;;;0.22;72.33
28448;BME280;15675;52.870;-1.416;2024-01-16T00:56:41;100624.88;;;0.40;72.28
28448;BME280;15675;52.870;-1.416;2024-01-16T00:59:07;100625.59;;;0.18;71.69
28448;BME280;15675;52.870;-1.416;2024-01-16T01:01:32;100620.69;;;0.23;72.10
28448;BME280;15675;52.870;-1.416;2024-01-16T01:03:58;100622.06;;;0.14;72.03
28448;BME280;15675;52.870;-1.416;2024-01-16T01:06:23;100629.63;;;-0.07;72.68
28448;BME280;15675;52.870;-1.416;2024-01-16T01:08:49;100624.53;;;0.13;72.63
28448;BME280;15675;52.870;-1.416;2024-01-16T01:11:14;100620.09;;;0.09;73.04
28448;BME280;15675;52.870;-1.416;2024-01-16T01:13:41;100625.78;;;0.23;72.57
28448;BME280;15675;52.870;-1.416;2024-01-16T01:16:06;100619.44;;;0.13;72.92
28448;BME280;15675;52.870;-1.416;2024-01-16T01:18:32;100615.94;;;0.30;72.64
28448;BME280;15675;52.870;-1.416;2024-01-16T01:20:57;100616.44;;;0.62;71.73
28448;BME280;15675;52.870;-1.416;2024-01-16T01:23:23;100601.59;;;0.54;71.21
28448;BME280;15675;52.870;-1.416;2024-01-16T01:25:48;100599.66;;;0.28;71.27
28448;BME280;15675;52.870;-1.416;2024-01-16T01:28:14;100601.28;;;0.26;71.60
28448;BME280;15675;52.870;-1.416;2024-01-16T01:30:39;100595.22;;;0.44;71.86
28448;BME280;15675;52.870;-1.416;2024-01-16T01:33:05;100595.09;;;0.41;71.48
28448;BME280;15675;52.870;-1.416;2024-01-16T01:35:31;100592.00;;;0.69;71.35
28448;BME280;15675;52.870;-1.416;2024-01-16T01:37:56;100590.09;;;0.84;70.73
28448;BME280;15675;52.870;-1.416;2024-01-16T01:40:22;100596.31;;;0.91;69.83
28448;BME280;15675;52.870;-1.416;2024-01-16T01:42:47;100595.28;;;1.07;69.81
28448;BME280;15675;52.870;-1.416;2024-01-16T01:45:13;100592.16;;;1.14;69.19
28448;BME280;15675;52.870;-1.416;2024-01-16T01:47:40;100604.47;;;1.25;68.79
28448;BME280;15675;52.870;-1.416;2024-01-16T01:50:08;100594.38;;;0.85;68.57
28448;BME280;15675;52.870;-1.416;2024-01-16T01:52:35;100596.53;;;0.55;69.96
28448;BME280;15675;52.870;-1.416;2024-01-16T01:55:01;100598.91;;;0.11;71.09
28448;BME280;15675;52.870;-1.416;2024-01-16T01:57:28;100599.03;;;0.54;71.84
28448;BME280;15675;52.870;-1.416;2024-01-16T01:59:54;100595.41;;;0.48;71.32
28448;BME280;15675;52.870;-1.416;2024-01-16T02:02:20;100589.41;;;0.67;70.86
28448;BME280;15675;52.870;-1.416;2024-01-16T02:04:46;100591.41;;;0.96;70.76
28448;BME280;15675;52.870;-1.416;2024-01-16T02:07:13;100588.75;;;0.93;69.88
28448;BME280;15675;52.870;-1.416;2024-01-16T02:09:40;100587.72;;;0.68;69.73
28448;BME280;15675;52.870;-1.416;2024-01-16T02:12:06;100581.78;;;0.69;70.04
28448;BME280;15675;52.870;-1.416;2024-01-16T02:14:32;100588.47;;;1.08;69.90
28448;BME280;15675;52.870;-1.416;2024-01-16T02:16:58;100573.94;;;0.85;69.65
28448;BME280;15675;52.870;-1.416;2024-01-16T02:19:23;100572.72;;;0.76;69.92
28448;BME280;15675;52.870;-1.416;2024-01-16T02:21:53;100568.81;;;0.85;69.68
28448;BME280;15675;52.870;-1.416;2024-01-16T02:24:20;100565.09;;;0.37;69.80
28448;BME280;15675;52.870;-1.416;2024-01-16T02:26:46;100568.47;;;0.36;70.84
28448;BME280;15675;52.870;-1.416;2024-01-16T02:29:12;100559.97;;;0.56;70.96
28448;BME280;15675;52.870;-1.416;2024-01-16T02:31:38;100561.59;;;0.75;70.66
28448;BME280;15675;52.870;-1.416;2024-01-16T02:34:04;100566.03;;;0.79;70.45
28448;BME280;15675;52.870;-1.416;2024-01-16T02:36:30;100566.53;;;1.13;69.62
28448;BME280;15675;52.870;-1.416;2024-01-16T02:38:56;100552.94;;;0.93;69.10
28448;BME280;15675;52.870;-1.416;2024-01-16T02:41:22;100552.16;;;1.16;68.93
28448;BME280;15675;52.870;-1.416;2024-01-16T02:43:47;100541.66;;;0.88;69.17
28448;BME280;15675;52.870;-1.416;2024-01-16T02:46:14;100539.56;;;0.77;69.77
28448;BME280;15675;52.870;-1.416;2024-01-16T02:48:40;100544.66;;;0.77;69.67
28448;BME280;15675;52.870;-1.416;2024-01-16T02:51:08;100534.00;;;0.88;69.92
28448;BME280;15675;52.870;-1.416;2024-01-16T02:53:33;100541.16;;;0.96;69.86
28448;BME280;15675;52.870;-1.416;2024-01-16T02:55:59;100542.72;;;0.72;70.13
28448;BME280;15675;52.870;-1.416;2024-01-16T02:58:28;100541.22;;;0.77;70.21
28448;BME280;15675;52.870;-1.416;2024-01-16T03:00:54;100542.09;;;0.98;70.16
28448;BME280;15675;52.870;-1.416;2024-01-16T03:05:52;100530.06;;;0.96;69.46
28448;BME280;15675;52.870;-1.416;2024-01-16T03:08:18;100528.91;;;1.10;69.60
28448;BME280;15675;52.870;-1.416;2024-01-16T03:10:44;100531.69;;;1.84;69.18
28448;BME280;15675;52.870;-1.416;2024-01-16T03:13:10;100524.44;;;2.21;68.16
28448;BME280;15675;52.870;-1.416;2024-01-16T03:15:35;100515.66;;;2.14;67.44
28448;BME280;15675;52.870;-1.416;2024-01-16T03:18:01;100512.09;;;2.11;66.67
28448;BME280;15675;52.870;-1.416;2024-01-16T03:20:27;100504.91;;;2.24;66.41
28448;BME280;15675;52.870;-1.416;2024-01-16T03:22:53;100502.72;;;2.61;65.89
28448;BME280;15675;52.870;-1.416;2024-01-16T03:25:19;100499.16;;;2.57;65.19
28448;BME280;15675;52.870;-1.416;2024-01-16T03:27:45;100493.22;;;2.58;64.30
28448;BME280;15675;52.870;-1.416;2024-01-16T03:30:11;100492.16;;;2.26;64.29
28448;BME280;15675;52.870;-1.416;2024-01-16T03:32:38;100488.16;;;2.34;64.60
28448;BME280;15675;52.870;-1.416;2024-01-16T03:35:05;100488.75;;;2.53;65.05
28448;BME280;15675;52.870;-1.416;2024-01-16T03:37:31;100493.84;;;2.26;65.42
28448;BME280;15675;52.870;-1.416;2024-01-16T03:39:57;100495.13;;;2.38;65.57
28448;BME280;15675;52.870;-1.416;2024-01-16T03:42:23;100487.75;;;1.98;65.54
28448;BME280;15675;52.870;-1.416;2024-01-16T03:44:49;100490.72;;;0.92;67.13
28448;BME280;15675;52.870;-1.416;2024-01-16T03:47:15;100490.66;;;0.91;68.56
28448;BME280;15675;52.870;-1.416;2024-01-16T03:49:41;100494.41;;;0.78;70.01
28448;BME280;15675;52.870;-1.416;2024-01-16T03:52:06;100490.72;;;0.92;70.90
28448;BME280;15675;52.870;-1.416;2024-01-16T03:54:32;100489.38;;;1.02;71.55
28448;BME280;15675;52.870;-1.416;2024-01-16T03:56:58;100485.44;;;0.88;72.62
28448;BME280;15675;52.870;-1.416;2024-01-16T03:59:23;100483.53;;;1.05;72.82
28448;BME280;15675;52.870;-1.416;2024-01-16T04:01:49;100486.78;;;1.00;73.44
28448;BME280;15675;52.870;-1.416;2024-01-16T04:04:15;100484.97;;;0.98;73.64
28448;BME280;15675;52.870;-1.416;2024-01-16T04:06:41;100484.69;;;0.90;73.91
28448;BME280;15675;52.870;-1.416;2024-01-16T04:09:07;100472.59;;;1.09;74.42
28448;BME280;15675;52.870;-1.416;2024-01-16T04:11:33;100464.53;;;1.20;74.47
28448;BME280;15675;52.870;-1.416;2024-01-16T04:13:59;100458.06;;;1.08;74.47
28448;BME280;15675;52.870;-1.416;2024-01-16T04:16:25;100464.34;;;1.16;74.59
28448;BME280;15675;52.870;-1.416;2024-01-16T04:18:50;100453.81;;;1.08;74.95
28448;BME280;15675;52.870;-1.416;2024-01-16T04:21:16;100455.75;;;1.14;74.97
28448;BME280;15675;52.870;-1.416;2024-01-16T04:23:41;100467.25;;;1.25;74.76
28448;BME280;15675;52.870;-1.416;2024-01-16T04:26:07;100458.13;;;1.09;75.06
28448;BME280;15675;52.870;-1.416;2024-01-16T04:28:34;100463.66;;;1.20;75.44
28448;BME280;15675;52.870;-1.416;2024-01-16T04:31:00;100457.13;;;1.28;75.21
28448;BME280;15675;52.870;-1.416;2024-01-16T04:33:27;100461.09;;;1.20;75.45
28448;BME280;15675;52.870;-1.416;2024-01-16T04:35:54;100462.25;;;1.28;75.40
28448;BME280;15675;52.870;-1.416;2024-01-16T04:38:19;100452.19;;;1.33;75.47
28448;BME280;15675;52.870;-1.416;2024-01-16T04:40:45;100457.31;;;1.33;75.53
28448;BME280;15675;52.870;-1.416;2024-01-16T04:43:10;100451.09;;;1.26;75.55
28448;BME280;15675;52.870;-1.416;2024-01-16T04:45:36;100453.31;;;1.17;75.83
28448;BME280;15675;52.870;-1.416;2024-01-16T04:48:01;100443.88;;;0.71;76.74
28448;BME280;15675;52.870;-1.416;2024-01-16T04:50:28;100441.78;;;0.60;78.69
28448;BME280;15675;52.870;-1.416;2024-01-16T04:53:00;100436.28;;;0.51;80.32
28448;BME280;15675;52.870;-1.416;2024-01-16T04:55:26;100435.09;;;0.43;81.44
28448;BME280;15675;52.870;-1.416;2024-01-16T04:57:52;100437.28;;;0.55;82.40
28448;BME280;15675;52.870;-1.416;2024-01-16T05:00:18;100425.50;;;0.58;83.02
28448;BME280;15675;52.870;-1.416;2024-01-16T05:02:43;100431.38;;;0.56;83.45
28448;BME280;15675;52.870;-1.416;2024-01-16T05:05:09;100432.69;;;0.46;84.17
28448;BME280;15675;52.870;-1.416;2024-01-16T05:07:34;100429.13;;;0.63;84.00
28448;BME280;15675;52.870;-1.416;2024-01-16T05:10:01;100431.84;;;0.68;83.43
28448;BME280;15675;52.870;-1.416;2024-01-16T05:12:27;100429.72;;;0.79;83.38
28448;BME280;15675;52.870;-1.416;2024-01-16T05:14:52;100423.13;;;0.85;82.91
28448;BME280;15675;52.870;-1.416;2024-01-16T05:17:17;100415.34;;;0.82;82.81
28448;BME280;15675;52.870;-1.416;2024-01-16T05:19:43;100406.34;;;0.92;82.08
28448;BME280;15675;52.870;-1.416;2024-01-16T05:22:10;100401.50;;;0.98;82.16
28448;BME280;15675;52.870;-1.416;2024-01-16T05:24:35;100393.09;;;1.02;82.22
28448;BME280;15675;52.870;-1.416;2024-01-16T05:27:01;100393.09;;;1.02;82.17
28448;BME280;15675;52.870;-1.416;2024-01-16T05:29:27;100389.09;;;1.09;81.91
28448;BME280;15675;52.870;-1.416;2024-01-16T05:31:52;100381.47;;;1.11;81.96
28448;BME280;15675;52.870;-1.416;2024-01-16T05:34:18;100384.50;;;1.23;81.79
28448;BME280;15675;52.870;-1.416;2024-01-16T05:36:43;100385.84;;;1.37;81.09
28448;BME280;15675;52.870;-1.416;2024-01-16T05:39:09;100380.94;;;1.19;81.09
28448;BME280;15675;52.870;-1.416;2024-01-16T05:41:35;100383.75;;;1.50;80.29
28448;BME280;15675;52.870;-1.416;2024-01-16T05:44:01;100384.19;;;1.15;80.41
28448;BME280;15675;52.870;-1.416;2024-01-16T05:46:33;100379.09;;;1.40;80.02
28448;BME280;15675;52.870;-1.416;2024-01-16T05:48:58;100375.84;;;1.44;79.82
28448;BME280;15675;52.870;-1.416;2024-01-16T05:51:26;100379.88;;;1.37;79.73
28448;BME280;15675;52.870;-1.416;2024-01-16T05:53:51;100381.38;;;1.56;79.90
28448;BME280;15675;52.870;-1.416;2024-01-16T05:56:17;100385.47;;;1.27;80.14
28448;BME280;15675;52.870;-1.416;2024-01-16T05:58:42;100372.31;;;1.16;81.16
28448;BME280;15675;52.870;-1.416;2024-01-16T06:01:08;100376.97;;;1.03;81.51
28448;BME280;15675;52.870;-1.416;2024-01-16T06:03:33;100381.84;;;1.20;82.53
28448;BME280;15675;52.870;-1.416;2024-01-16T06:05:59;100372.47;;;1.20;82.53
28448;BME280;15675;52.870;-1.416;2024-01-16T06:08:25;100378.38;;;1.44;82.39
28448;BME280;15675;52.870;-1.416;2024-01-16T06:10:51;100369.75;;;1.40;82.49
28448;BME280;15675;52.870;-1.416;2024-01-16T06:13:18;100367.94;;;1.37;82.65
28448;BME280;15675;52.870;-1.416;2024-01-16T06:15:44;100359.53;;;1.16;83.12
28448;BME280;15675;52.870;-1.416;2024-01-16T06:18:09;100360.47;;;1.19;83.58
28448;BME280;15675;52.870;-1.416;2024-01-16T06:20:35;100361.78;;;1.57;83.72
28448;BME280;15675;52.870;-1.416;2024-01-16T06:23:01;100367.28;;;1.43;83.43
28448;BME280;15675;52.870;-1.416;2024-01-16T06:25:26;100357.81;;;1.41;83.19
28448;BME280;15675;52.870;-1.416;2024-01-16T06:27:52;100354.16;;;1.10;83.48
28448;BME280;15675;52.870;-1.416;2024-01-16T06:30:18;100345.13;;;0.95;84.77
28448;BME280;15675;52.870;-1.416;2024-01-16T06:32:44;100347.53;;;1.15;85.41
28448;BME280;15675;52.870;-1.416;2024-01-16T06:35:12;100346.34;;;1.29;85.18
28448;BME280;15675;52.870;-1.416;2024-01-16T06:37:37;100348.03;;;1.29;84.98
28448;BME280;15675;52.870;-1.416;2024-01-16T06:40:03;100347.94;;;1.01;85.44
28448;BME280;15675;52.870;-1.416;2024-01-16T06:42:29;100341.06;;;1.00;86.42
28448;BME280;15675;52.870;-1.416;2024-01-16T06:44:55;100336.91;;;1.04;86.90
28448;BME280;15675;52.870;-1.416;2024-01-16T06:47:20;100324.63;;;0.94;87.58
28448;BME280;15675;52.870;-1.416;2024-01-16T06:49:45;100329.84;;;0.97;88.22
28448;BME280;15675;52.870;-1.416;2024-01-16T06:52:11;100313.19;;;0.84;88.88
28448;BME280;15675;52.870;-1.416;2024-01-16T06:54:36;100308.97;;;1.09;88.72
28448;BME280;15675;52.870;-1.416;2024-01-16T06:57:02;100310.19;;;0.72;89.50
28448;BME280;15675;52.870;-1.416;2024-01-16T06:59:28;100311.69;;;0.44;90.28
28448;BME280;15675;52.870;-1.416;2024-01-16T07:01:53;100311.31;;;0.56;92.17
28448;BME280;15675;52.870;-1.416;2024-01-16T07:04:20;100313.19;;;0.61;92.33
28448;BME280;15675;52.870;-1.416;2024-01-16T07:06:47;100312.88;;;0.52;92.92
28448;BME280;15675;52.870;-1.416;2024-01-16T07:09:13;100308.34;;;0.67;93.18
28448;BME280;15675;52.870;-1.416;2024-01-16T07:11:38;100308.44;;;0.71;92.83
28448;BME280;15675;52.870;-1.416;2024-01-16T07:14:09;100313.66;;;0.74;92.46
28448;BME280;15675;52.870;-1.416;2024-01-16T07:16:34;100299.38;;;0.79;92.29
28448;BME280;15675;52.870;-1.416;2024-01-16T07:19:01;100298.22;;;0.71;92.00
28448;BME280;15675;52.870;-1.416;2024-01-16T07:21:27;100299.03;;;0.69;91.85
28448;BME280;15675;52.870;-1.416;2024-01-16T07:23:54;100300.19;;;0.78;91.81
28448;BME280;15675;52.870;-1.416;2024-01-16T07:26:19;100296.31;;;0.65;91.26
28448;BME280;15675;52.870;-1.416;2024-01-16T07:28:46;100301.53;;;0.68;91.53
28448;BME280;15675;52.870;-1.416;2024-01-16T07:31:13;100297.75;;;0.81;91.45
28448;BME280;15675;52.870;-1.416;2024-01-16T07:33:39;100299.16;;;0.73;91.20
28448;BME280;15675;52.870;-1.416;2024-01-16T07:36:06;100304.47;;;1.01;90.54
28448;BME280;15675;52.870;-1.416;2024-01-16T07:38:34;100299.81;;;1.15;90.20
28448;BME280;15675;52.870;-1.416;2024-01-16T07:41:01;100296.84;;;1.27;89.06
28448;BME280;15675;52.870;-1.416;2024-01-16T07:43:27;100292.16;;;1.15;88.66
28448;BME280;15675;52.870;-1.416;2024-01-16T07:45:55;100280.63;;;1.02;88.06
28448;BME280;15675;52.870;-1.416;2024-01-16T07:48:21;100283.00;;;1.22;88.12
28448;BME280;15675;52.870;-1.416;2024-01-16T07:50:48;100290.13;;;1.07;87.68
28448;BME280;15675;52.870;-1.416;2024-01-16T07:53:14;100286.28;;;1.18;87.96
28448;BME280;15675;52.870;-1.416;2024-01-16T07:55:43;100286.25;;;1.42;86.91
28448;BME280;15675;52.870;-1.416;2024-01-16T07:58:12;100288.78;;;1.16;86.20
28448;BME280;15675;52.870;-1.416;2024-01-16T08:00:38;100285.56;;;1.22;86.16
28448;BME280;15675;52.870;-1.416;2024-01-16T08:03:07;100292.78;;;1.34;86.45
28448;BME280;15675;52.870;-1.416;2024-01-16T08:05:33;100281.19;;;1.69;85.59
28448;BME280;15675;52.870;-1.416;2024-01-16T08:07:58;100278.56;;;1.42;83.82
28448;BME280;15675;52.870;-1.416;2024-01-16T08:10:24;100275.25;;;1.45;83.44
28448;BME280;15675;52.870;-1.416;2024-01-16T08:12:50;100272.88;;;1.25;83.90
28448;BME280;15675;52.870;-1.416;2024-01-16T08:15:15;100277.19;;;1.26;84.45
28448;BME280;15675;52.870;-1.416;2024-01-16T08:17:41;100274.03;;;1.33;84.28
28448;BME280;15675;52.870;-1.416;2024-01-16T08:20:07;100275.50;;;1.27;84.37
28448;BME280;15675;52.870;-1.416;2024-01-16T08:22:36;100274.47;;;1.22;85.19
28448;BME280;15675;52.870;-1.416;2024-01-16T08:25:02;100273.41;;;1.41;85.44
28448;BME280;15675;52.870;-1.416;2024-01-16T08:27:30;100277.56;;;1.37;85.09
28448;BME280;15675;52.870;-1.416;2024-01-16T08:29:56;100280.22;;;1.40;85.91
28448;BME280;15675;52.870;-1.416;2024-01-16T08:32:22;100268.19;;;1.37;85.78
28448;BME280;15675;52.870;-1.416;2024-01-16T08:34:48;100263.88;;;1.62;84.96
28448;BME280;15675;52.870;-1.416;2024-01-16T08:37:13;100257.97;;;1.37;84.43
28448;BME280;15675;52.870;-1.416;2024-01-16T08:39:39;100261.00;;;1.26;84.55
28448;BME280;15675;52.870;-1.416;2024-01-16T08:42:05;100256.81;;;1.03;85.52
28448;BME280;15675;52.870;-1.416;2024-01-16T08:44:31;100257.25;;;1.16;87.04
28448;BME280;15675;52.870;-1.416;2024-01-16T08:46:56;100264.09;;;1.17;87.12
28448;BME280;15675;52.870;-1.416;2024-01-16T08:49:23;100258.16;;;1.18;87.83
28448;BME280;15675;52.870;-1.416;2024-01-16T08:51:48;100259.34;;;1.53;88.45
28448;BME280;15675;52.870;-1.416;2024-01-16T08:54:14;100252.78;;;1.10;88.35
28448;BME280;15675;52.870;-1.416;2024-01-16T08:56:40;100258.38;;;1.24;89.38
28448;BME280;15675;52.870;-1.416;2024-01-16T08:59:05;100250.47;;;1.18;89.83
28448;BME280;15675;52.870;-1.416;2024-01-16T09:01:30;100251.16;;;1.38;90.34
28448;BME280;15675;52.870;-1.416;2024-01-16T09:03:56;100244.38;;;1.38;89.77
28448;BME280;15675;52.870;-1.416;2024-01-16T09:06:21;100238.63;;;1.46;90.22
28448;BME280;15675;52.870;-1.416;2024-01-16T09:08:47;100242.03;;;1.72;90.36
28448;BME280;15675;52.870;-1.416;2024-01-16T09:11:12;100235.94;;;1.41;90.31
28448;BME280;15675;52.870;-1.416;2024-01-16T09:13:38;100227.16;;;1.60;91.15
28448;BME280;15675;52.870;-1.416;2024-01-16T09:16:04;100221.50;;;1.70;91.35
28448;BME280;15675;52.870;-1.416;2024-01-16T09:18:29;100225.09;;;1.76;91.33
28448;BME280;15675;52.870;-1.416;2024-01-16T09:20:55;100231.16;;;1.79;91.39
28448;BME280;15675;52.870;-1.416;2024-01-16T09:23:21;100220.84;;;2.05;91.02
28448;BME280;15675;52.870;-1.416;2024-01-16T09:25:47;100222.81;;;2.14;89.13
28448;BME280;15675;52.870;-1.416;2024-01-16T09:28:12;100213.97;;;2.31;88.69
28448;BME280;15675;52.870;-1.416;2024-01-16T09:30:38;100210.16;;;2.47;88.24
28448;BME280;15675;52.870;-1.416;2024-01-16T09:33:04;100206.13;;;2.87;87.11
28448;BME280;15675;52.870;-1.416;2024-01-16T09:35:32;100205.44;;;2.94;85.70
28448;BME280;15675;52.870;-1.416;2024-01-16T09:37:58;100210.91;;;3.07;85.16
28448;BME280;15675;52.870;-1.416;2024-01-16T09:40:25;100204.25;;;2.82;84.58
28448;BME280;15675;52.870;-1.416;2024-01-16T09:42:51;100199.19;;;2.85;84.17
28448;BME280;15675;52.870;-1.416;2024-01-16T09:45:20;100189.00;;;3.20;83.44
28448;BME280;15675;52.870;-1.416;2024-01-16T09:47:52;100181.47;;;2.92;83.94
28448;BME280;15675;52.870;-1.416;2024-01-16T09:50:18;100185.19;;;3.04;83.13
28448;BME280;15675;52.870;-1.416;2024-01-16T09:52:48;100188.06;;;2.83;83.23
28448;BME280;15675;52.870;-1.416;2024-01-16T09:55:15;100168.91;;;3.03;83.71
28448;BME280;15675;52.870;-1.416;2024-01-16T09:57:41;100174.22;;;2.46;84.80
28448;BME280;15675;52.870;-1.416;2024-01-16T10:00:10;100179.59;;;2.85;86.13
28448;BME280;15675;52.870;-1.416;2024-01-16T10:02:40;100166.31;;;3.02;85.40
28448;BME280;15675;52.870;-1.416;2024-01-16T10:05:07;100172.41;;;3.05;84.61
28448;BME280;15675;52.870;-1.416;2024-01-16T10:07:35;100166.72;;;2.84;83.98
28448;BME280;15675;52.870;-1.416;2024-01-16T10:10:02;100175.19;;;3.15;83.50
28448;BME280;15675;52.870;-1.416;2024-01-16T10:12:28;100178.53;;;2.79;84.84
28448;BME280;15675;52.870;-1.416;2024-01-16T10:14:55;100170.44;;;2.95;85.20
28448;BME280;15675;52.870;-1.416;2024-01-16T10:17:21;100160.53;;;3.10;85.16
28448;BME280;15675;52.870;-1.416;2024-01-16T10:19:51;100158.94;;;2.81;84.87
28448;BME280;15675;52.870;-1.416;2024-01-16T10:22:22;100166.56;;;3.11;85.54
28448;BME280;15675;52.870;-1.416;2024-01-16T10:24:48;100163.53;;;2.92;86.45
28448;BME280;15675;52.870;-1.416;2024-01-16T10:27:17;100164.41;;;2.61;87.27
28448;BME280;15675;52.870;-1.416;2024-01-16T10:29:56;100163.19;;;2.80;88.71
28448;BME280;15675;52.870;-1.416;2024-01-16T10:32:36;100169.63;;;2.64;89.81
28448;BME280;15675;52.870;-1.416;2024-01-16T10:35:13;100158.75;;;2.73;90.54
28448;BME280;15675;52.870;-1.416;2024-01-16T10:42:44;100143.50;;;3.49;87.91
28448;BME280;15675;52.870;-1.416;2024-01-16T10:45:20;100135.78;;;3.48;87.13
28448;BME280;15675;52.870;-1.416;2024-01-16T10:47:49;100141.63;;;3.78;86.19
28448;BME280;15675;52.870;-1.416;2024-01-16T10:50:15;100136.47;;;3.78;84.78
28448;BME280;15675;52.870;-1.416;2024-01-16T10:52:47;100135.06;;;3.93;83.64
28448;BME280;15675;52.870;-1.416;2024-01-16T10:55:22;100127.81;;;3.35;83.43
28448;BME280;15675;52.870;-1.416;2024-01-16T10:57:49;100121.19;;;3.45;84.55
28448;BME280;15675;52.870;-1.416;2024-01-16T11:00:18;100129.72;;;3.82;83.92
28448;BME280;15675;52.870;-1.416;2024-01-16T11:02:49;100118.59;;;3.83;84.25
28448;BME280;15675;52.870;-1.416;2024-01-16T11:05:17;100115.59;;;4.03;83.29
28448;BME280;15675;52.870;-1.416;2024-01-16T11:07:43;100120.41;;;4.28;81.98
28448;BME280;15675;52.870;-1.416;2024-01-16T11:10:10;100113.84;;;4.02;81.89
28448;BME280;15675;52.870;-1.416;2024-01-16T11:12:38;100114.34;;;3.84;83.36
28448;BME280;15675;52.870;-1.416;2024-01-16T11:15:07;100112.75;;;4.33;82.47
28448;BME280;15675;52.870;-1.416;2024-01-16T11:17:33;100110.75;;;4.17;81.73
28448;BME280;15675;52.870;-1.416;2024-01-16T11:20:03;100099.94;;;3.92;82.00
28448;BME280;15675;52.870;-1.416;2024-01-16T11:22:43;100099.00;;;4.29;81.49
28448;BME280;15675;52.870;-1.416;2024-01-16T11:25:10;100094.50;;;4.18;81.06
28448;BME280;15675;52.870;-1.416;2024-01-16T11:27:37;100089.47;;;4.24;80.51
28448;BME280;15675;52.870;-1.416;2024-01-16T11:30:08;100078.19;;;4.15;80.32
28448;BME280;15675;52.870;-1.416;2024-01-16T11:32:38;100078.00;;;4.51;79.88
28448;BME280;15675;52.870;-1.416;2024-01-16T11:35:09;100072.78;;;4.47;80.08
28448;BME280;15675;52.870;-1.416;2024-01-16T11:37:35;100066.59;;;4.36;79.87
28448;BME280;15675;52.870;-1.416;2024-01-16T11:40:20;100060.53;;;4.34;80.23
28448;BME280;15675;52.870;-1.416;2024-01-16T11:42:53;100045.38;;;4.01;80.10
28448;BME280;15675;52.870;-1.416;2024-01-16T11:48:11;100033.31;;;3.98;80.79
28448;BME280;15675;52.870;-1.416;2024-01-16T11:50:36;100030.34;;;4.22;81.66
28448;BME280;15675;52.870;-1.416;2024-01-16T11:53:02;100032.00;;;4.19;80.44
28448;BME280;15675;52.870;-1.416;2024-01-16T11:55:42;100019.38;;;4.31;80.75
28448;BME280;15675;52.870;-1.416;2024-01-16T11:58:51;100016.69;;;4.23;81.01
28448;BME280;15675;52.870;-1.416;2024-01-16T12:01:23;99997.03;;;4.27;81.21
28448;BME280;15675;52.870;-1.416;2024-01-16T12:04:04;100001.44;;;3.87;81.64
28448;BME280;15675;52.870;-1.416;2024-01-16T12:06:30;100000.22;;;4.13;82.07
28448;BME280;15675;52.870;-1.416;2024-01-16T12:09:16;100007.03;;;4.11;81.95
28448;BME280;15675;52.870;-1.416;2024-01-16T12:11:44;99993.69;;;4.31;81.62
28448;BME280;15675;52.870;-1.416;2024-01-16T12:14:20;99988.63;;;4.36;80.99
28448;BME280;15675;52.870;-1.416;2024-01-16T12:16:46;99978.16;;;4.25;81.29
28448;BME280;15675;52.870;-1.416;2024-01-16T12:19:13;99978.94;;;4.73;80.07
28448;BME280;15675;52.870;-1.416;2024-01-16T12:21:39;99968.56;;;4.65;79.25
28448;BME280;15675;52.870;-1.416;2024-01-16T12:24:06;99959.91;;;4.61;79.43
28448;BME280;15675;52.870;-1.416;2024-01-16T12:26:32;99953.59;;;4.41;78.58
28448;BME280;15675;52.870;-1.416;2024-01-16T12:28:58;99951.28;;;4.56;78.80
28448;BME280;15675;52.870;-1.416;2024-01-16T12:31:24;99947.22;;;4.71;78.44
28448;BME280;15675;52.870;-1.416;2024-01-16T12:33:54;99950.50;;;4.60;77.56
28448;BME280;15675;52.870;-1.416;2024-01-16T12:36:20;99943.75;;;4.69;76.97
28448;BME280;15675;52.870;-1.416;2024-01-16T12:38:54;99943.72;;;4.67;77.37
28448;BME280;15675;52.870;-1.416;2024-01-16T12:41:20;99937.00;;;4.77;76.54
28448;BME280;15675;52.870;-1.416;2024-01-16T12:43:50;99938.81;;;4.82;76.25
28448;BME280;15675;52.870;-1.416;2024-01-16T12:46:16;99931.31;;;4.98;75.60
28448;BME280;15675;52.870;-1.416;2024-01-16T12:48:41;99928.72;;;4.96;75.71
28448;BME280;15675;52.870;-1.416;2024-01-16T12:51:07;99915.66;;;4.82;75.41
28448;BME280;15675;52.870;-1.416;2024-01-16T12:53:33;99898.00;;;4.47;75.07
28448;BME280;15675;52.870;-1.416;2024-01-16T12:56:05;99896.28;;;4.45;75.11
28448;BME280;15675;52.870;-1.416;2024-01-16T12:58:36;99890.38;;;4.51;75.08